sensor_id;sensor_type;location;lat;lon;timestamp;P1;durP1;ratioP1;P2;durP2;ratioP2
52982;SDS011;48698;45.736;13.926;2023-06-24T00:03:39;6.05;;;2.55;;
52982;SDS011;48698;45.736;13.926;2023-06-24T00:08:42;5.78;;;2.58;;
52982;SDS011;48698;45.736;13.926;2023-06-24T00:13:45;4.50;;;3.00;;
52982;SDS011;48698;45.736;13.926;2023-06-24T00:18:48;4.07;;;2.45;;
52982;SDS011;48698;45.736;13.926;2023-06-24T00:23:50;6.30;;;2.50;;
52982;SDS011;48698;45.736;13.926;2023-06-24T00:28:53;4.30;;;2.93;;
52982;SDS011;48698;45.736;13.926;2023-06-24T00:33:56;3.67;;;2.88;;
52982;SDS011;48698;45.736;13.926;2023-06-24T00:39:09;4.82;;;3.20;;
52982;SDS011;48698;45.736;13.926;2023-06-24T00:44:12;5.07;;;2.97;;
52982;SDS011;48698;45.736;13.926;2023-06-24T00:49:15;3.60;;;3.00;;
52982;SDS011;48698;45.736;13.926;2023-06-24T00:54:28;4.05;;;2.85;;
52982;SDS011;48698;45.736;13.926;2023-06-24T00:59:43;6.10;;;2.95;;
52982;SDS011;48698;45.736;13.926;2023-06-24T01:04:48;8.38;;;3.20;;
52982;SDS011;48698;45.736;13.926;2023-06-24T01:09:50;5.38;;;3.45;;
52982;SDS011;48698;45.736;13.926;2023-06-24T01:15:02;3.85;;;3.00;;
52982;SDS011;48698;45.736;13.926;2023-06-24T01:30:31;10.77;;;3.38;;
52982;SDS011;48698;45.736;13.926;2023-06-24T01:35:57;4.40;;;3.10;;
52982;SDS011;48698;45.736;13.926;2023-06-24T01:41:03;4.85;;;2.80;;
52982;SDS011;48698;45.736;13.926;2023-06-24T01:46:22;6.70;;;3.28;;
52982;SDS011;48698;45.736;13.926;2023-06-24T01:51:27;3.53;;;3.08;;
52982;SDS011;48698;45.736;13.926;2023-06-24T01:56:33;4.28;;;3.22;;
52982;SDS011;48698;45.736;13.926;2023-06-24T02:01:38;7.63;;;3.90;;
52982;SDS011;48698;45.736;13.926;2023-06-24T02:06:46;4.80;;;3.30;;
52982;SDS011;48698;45.736;13.926;2023-06-24T02:12:01;5.65;;;3.08;;
52982;SDS011;48698;45.736;13.926;2023-06-24T02:17:06;6.32;;;3.38;;
52982;SDS011;48698;45.736;13.926;2023-06-24T02:22:17;5.60;;;3.17;;
52982;SDS011;48698;45.736;13.926;2023-06-24T02:27:21;5.63;;;3.60;;
52982;SDS011;48698;45.736;13.926;2023-06-24T02:32:25;5.40;;;3.63;;
52982;SDS011;48698;45.736;13.926;2023-06-24T02:37:27;5.07;;;3.30;;
52982;SDS011;48698;45.736;13.926;2023-06-24T02:42:30;7.47;;;3.17;;
52982;SDS011;48698;45.736;13.926;2023-06-24T02:47:43;5.03;;;3.10;;
52982;SDS011;48698;45.736;13.926;2023-06-24T02:52:58;5.63;;;3.20;;
52982;SDS011;48698;45.736;13.926;2023-06-24T02:58:02;4.88;;;2.90;;
52982;SDS011;48698;45.736;13.926;2023-06-24T03:03:12;4.40;;;2.83;;
52982;SDS011;48698;45.736;13.926;2023-06-24T03:08:15;5.82;;;3.15;;
52982;SDS011;48698;45.736;13.926;2023-06-24T03:13:18;3.80;;;2.75;;
52982;SDS011;48698;45.736;13.926;2023-06-24T03:18:20;6.07;;;3.03;;
52982;SDS011;48698;45.736;13.926;2023-06-24T03:23:33;8.88;;;3.15;;
52982;SDS011;48698;45.736;13.926;2023-06-24T03:28:36;4.45;;;3.10;;
52982;SDS011;48698;45.736;13.926;2023-06-24T03:33:51;3.42;;;2.60;;
52982;SDS011;48698;45.736;13.926;2023-06-24T03:38:53;5.10;;;2.90;;
52982;SDS011;48698;45.736;13.926;2023-06-24T03:43:56;3.35;;;2.60;;
52982;SDS011;48698;45.736;13.926;2023-06-24T03:48:59;3.15;;;2.40;;
52982;SDS011;48698;45.736;13.926;2023-06-24T03:54:02;5.13;;;2.75;;
52982;SDS011;48698;45.736;13.926;2023-06-24T03:59:05;3.75;;;2.55;;
52982;SDS011;48698;45.736;13.926;2023-06-24T04:04:08;5.13;;;2.60;;
52982;SDS011;48698;45.736;13.926;2023-06-24T04:09:19;3.28;;;2.40;;
52982;SDS011;48698;45.736;13.926;2023-06-24T04:14:21;2.47;;;2.28;;
52982;SDS011;48698;45.736;13.926;2023-06-24T04:19:24;4.82;;;2.42;;
52982;SDS011;48698;45.736;13.926;2023-06-24T04:24:27;4.07;;;2.20;;
52982;SDS011;48698;45.736;13.926;2023-06-24T04:29:30;3.38;;;2.58;;
52982;SDS011;48698;45.736;13.926;2023-06-24T04:34:42;5.05;;;2.40;;
52982;SDS011;48698;45.736;13.926;2023-06-24T04:39:45;4.38;;;2.17;;
52982;SDS011;48698;45.736;13.926;2023-06-24T04:44:48;3.15;;;2.00;;
52982;SDS011;48698;45.736;13.926;2023-06-24T04:49:53;2.72;;;2.00;;
52982;SDS011;48698;45.736;13.926;2023-06-24T04:54:56;5.60;;;2.15;;
52982;SDS011;48698;45.736;13.926;2023-06-24T05:00:09;4.28;;;2.35;;
52982;SDS011;48698;45.736;13.926;2023-06-24T05:05:12;4.35;;;2.00;;
52982;SDS011;48698;45.736;13.926;2023-06-24T05:10:15;2.80;;;2.10;;
52982;SDS011;48698;45.736;13.926;2023-06-24T05:15:17;4.38;;;2.17;;
52982;SDS011;48698;45.736;13.926;2023-06-24T05:20:20;4.07;;;2.40;;
52982;SDS011;48698;45.736;13.926;2023-06-24T05:25:24;3.00;;;2.30;;
52982;SDS011;48698;45.736;13.926;2023-06-24T05:30:27;3.65;;;2.08;;
52982;SDS011;48698;45.736;13.926;2023-06-24T05:35:30;4.40;;;2.08;;
52982;SDS011;48698;45.736;13.926;2023-06-24T05:40:33;5.15;;;2.15;;
52982;SDS011;48698;45.736;13.926;2023-06-24T05:45:36;3.65;;;2.13;;
52982;SDS011;48698;45.736;13.926;2023-06-24T05:50:39;2.50;;;2.20;;
52982;SDS011;48698;45.736;13.926;2023-06-24T05:55:42;2.88;;;2.28;;
52982;SDS011;48698;45.736;13.926;2023-06-24T06:00:53;4.60;;;2.33;;
52982;SDS011;48698;45.736;13.926;2023-06-24T06:05:57;2.58;;;1.90;;
52982;SDS011;48698;45.736;13.926;2023-06-24T06:11:00;3.28;;;2.08;;
52982;SDS011;48698;45.736;13.926;2023-06-24T06:16:06;3.28;;;2.13;;
52982;SDS011;48698;45.736;13.926;2023-06-24T06:21:10;3.33;;;2.22;;
52982;SDS011;48698;45.736;13.926;2023-06-24T06:26:13;3.17;;;2.55;;
52982;SDS011;48698;45.736;13.926;2023-06-24T06:31:16;5.15;;;2.30;;
52982;SDS011;48698;45.736;13.926;2023-06-24T06:36:19;4.10;;;2.40;;
52982;SDS011;48698;45.736;13.926;2023-06-24T06:41:23;3.00;;;2.40;;
52982;SDS011;48698;45.736;13.926;2023-06-24T06:46:27;4.57;;;2.55;;
52982;SDS011;48698;45.736;13.926;2023-06-24T06:51:39;3.38;;;2.13;;
52982;SDS011;48698;45.736;13.926;2023-06-24T06:56:41;3.33;;;1.90;;
52982;SDS011;48698;45.736;13.926;2023-06-24T07:01:44;2.20;;;2.00;;
52982;SDS011;48698;45.736;13.926;2023-06-24T07:06:48;3.00;;;1.98;;
52982;SDS011;48698;45.736;13.926;2023-06-24T07:11:51;2.83;;;1.60;;
52982;SDS011;48698;45.736;13.926;2023-06-24T07:16:54;3.03;;;1.80;;
52982;SDS011;48698;45.736;13.926;2023-06-24T07:21:56;3.13;;;1.95;;
52982;SDS011;48698;45.736;13.926;2023-06-24T07:26:59;2.60;;;1.80;;
52982;SDS011;48698;45.736;13.926;2023-06-24T07:32:02;2.17;;;1.70;;
52982;SDS011;48698;45.736;13.926;2023-06-24T07:37:15;3.63;;;1.90;;
52982;SDS011;48698;45.736;13.926;2023-06-24T07:42:25;2.22;;;1.75;;
52982;SDS011;48698;45.736;13.926;2023-06-24T07:47:31;4.43;;;1.70;;
52982;SDS011;48698;45.736;13.926;2023-06-24T07:52:35;2.15;;;1.48;;
52982;SDS011;48698;45.736;13.926;2023-06-24T07:57:37;1.93;;;1.20;;
52982;SDS011;48698;45.736;13.926;2023-06-24T08:02:41;3.83;;;1.50;;
52982;SDS011;48698;45.736;13.926;2023-06-24T08:07:44;2.35;;;1.40;;
52982;SDS011;48698;45.736;13.926;2023-06-24T08:12:47;2.00;;;1.40;;
52982;SDS011;48698;45.736;13.926;2023-06-24T08:17:59;3.07;;;1.20;;
52982;SDS011;48698;45.736;13.926;2023-06-24T08:23:02;3.30;;;1.13;;
52982;SDS011;48698;45.736;13.926;2023-06-24T08:28:14;1.98;;;1.20;;
52982;SDS011;48698;45.736;13.926;2023-06-24T08:33:35;4.00;;;0.90;;
52982;SDS011;48698;45.736;13.926;2023-06-24T08:38:56;2.38;;;1.20;;
52982;SDS011;48698;45.736;13.926;2023-06-24T08:43:59;6.20;;;1.30;;
52982;SDS011;48698;45.736;13.926;2023-06-24T08:49:05;2.10;;;1.13;;
52982;SDS011;48698;45.736;13.926;2023-06-24T08:54:10;3.90;;;1.38;;
52982;SDS011;48698;45.736;13.926;2023-06-24T08:59:13;3.15;;;1.00;;
52982;SDS011;48698;45.736;13.926;2023-06-24T09:04:21;1.23;;;1.02;;
52982;SDS011;48698;45.736;13.926;2023-06-24T09:09:24;2.08;;;1.23;;
52982;SDS011;48698;45.736;13.926;2023-06-24T09:14:27;1.90;;;0.90;;
52982;SDS011;48698;45.736;13.926;2023-06-24T09:19:32;1.80;;;0.80;;
52982;SDS011;48698;45.736;13.926;2023-06-24T09:24:38;1.60;;;1.10;;
52982;SDS011;48698;45.736;13.926;2023-06-24T10:14:47;2.28;;;1.10;;
52982;SDS011;48698;45.736;13.926;2023-06-24T10:19:52;1.63;;;1.20;;
52982;SDS011;48698;45.736;13.926;2023-06-24T10:24:58;2.60;;;1.10;;
52982;SDS011;48698;45.736;13.926;2023-06-24T10:30:03;1.42;;;1.05;;
52982;SDS011;48698;45.736;13.926;2023-06-24T10:35:07;1.23;;;0.90;;
52982;SDS011;48698;45.736;13.926;2023-06-24T10:40:09;2.42;;;1.27;;
52982;SDS011;48698;45.736;13.926;2023-06-24T10:50:18;5.70;;;1.27;;
52982;SDS011;48698;45.736;13.926;2023-06-24T10:55:25;1.52;;;1.10;;
52982;SDS011;48698;45.736;13.926;2023-06-24T11:00:28;2.15;;;1.20;;
52982;SDS011;48698;45.736;13.926;2023-06-24T11:10:41;1.02;;;0.93;;
52982;SDS011;48698;45.736;13.926;2023-06-24T11:15:51;2.28;;;1.00;;
52982;SDS011;48698;45.736;13.926;2023-06-24T11:20:55;2.40;;;1.08;;
52982;SDS011;48698;45.736;13.926;2023-06-24T11:25:58;2.63;;;1.10;;
52982;SDS011;48698;45.736;13.926;2023-06-24T11:31:06;1.80;;;1.30;;
52982;SDS011;48698;45.736;13.926;2023-06-24T11:36:11;2.85;;;1.10;;
52982;SDS011;48698;45.736;13.926;2023-06-24T11:41:14;1.60;;;1.10;;
52982;SDS011;48698;45.736;13.926;2023-06-24T11:46:21;2.33;;;1.20;;
52982;SDS011;48698;45.736;13.926;2023-06-24T11:51:26;3.67;;;1.55;;
52982;SDS011;48698;45.736;13.926;2023-06-24T11:56:35;1.30;;;1.10;;
52982;SDS011;48698;45.736;13.926;2023-06-24T12:57:46;1.42;;;1.20;;
52982;SDS011;48698;45.736;13.926;2023-06-24T13:02:50;1.85;;;1.00;;
52982;SDS011;48698;45.736;13.926;2023-06-24T13:07:53;2.05;;;1.50;;
52982;SDS011;48698;45.736;13.926;2023-06-24T13:12:55;3.90;;;1.30;;
52982;SDS011;48698;45.736;13.926;2023-06-24T13:17:58;2.17;;;1.55;;
52982;SDS011;48698;45.736;13.926;2023-06-24T13:23:01;1.75;;;1.20;;
52982;SDS011;48698;45.736;13.926;2023-06-24T13:28:04;3.63;;;1.60;;
52982;SDS011;48698;45.736;13.926;2023-06-24T13:33:08;2.47;;;1.23;;
52982;SDS011;48698;45.736;13.926;2023-06-24T13:38:11;2.10;;;1.20;;
52982;SDS011;48698;45.736;13.926;2023-06-24T13:43:14;2.65;;;1.15;;
52982;SDS011;48698;45.736;13.926;2023-06-24T13:48:17;2.47;;;1.50;;
52982;SDS011;48698;45.736;13.926;2023-06-24T13:53:20;2.50;;;1.00;;
52982;SDS011;48698;45.736;13.926;2023-06-24T13:58:22;0.80;;;0.63;;
52982;SDS011;48698;45.736;13.926;2023-06-24T14:03:25;1.13;;;0.70;;
52982;SDS011;48698;45.736;13.926;2023-06-24T14:08:28;3.00;;;0.60;;
52982;SDS011;48698;45.736;13.926;2023-06-24T14:18:34;2.03;;;0.60;;
52982;SDS011;48698;45.736;13.926;2023-06-24T14:23:37;1.05;;;0.40;;
52982;SDS011;48698;45.736;13.926;2023-06-24T14:28:40;1.98;;;0.40;;
52982;SDS011;48698;45.736;13.926;2023-06-24T14:33:42;1.85;;;0.50;;
52982;SDS011;48698;45.736;13.926;2023-06-24T14:38:45;2.47;;;0.47;;
52982;SDS011;48698;45.736;13.926;2023-06-24T14:43:48;1.48;;;0.73;;
52982;SDS011;48698;45.736;13.926;2023-06-24T14:48:51;1.50;;;0.40;;
52982;SDS011;48698;45.736;13.926;2023-06-24T14:53:54;0.30;;;0.30;;
52982;SDS011;48698;45.736;13.926;2023-06-24T14:58:57;1.17;;;0.30;;
52982;SDS011;48698;45.736;13.926;2023-06-24T15:04:00;0.47;;;0.40;;
52982;SDS011;48698;45.736;13.926;2023-06-24T15:09:03;1.63;;;0.50;;
52982;SDS011;48698;45.736;13.926;2023-06-24T15:14:05;1.85;;;0.40;;
52982;SDS011;48698;45.736;13.926;2023-06-24T15:19:08;0.40;;;0.40;;
52982;SDS011;48698;45.736;13.926;2023-06-24T15:24:11;1.00;;;0.40;;
52982;SDS011;48698;45.736;13.926;2023-06-24T15:29:14;1.90;;;0.90;;
52982;SDS011;48698;45.736;13.926;2023-06-24T15:34:17;2.10;;;0.50;;
52982;SDS011;48698;45.736;13.926;2023-06-24T15:39:20;6.68;;;0.90;;
52982;SDS011;48698;45.736;13.926;2023-06-24T16:09:21;16.80;;;2.03;;
52982;SDS011;48698;45.736;13.926;2023-06-24T16:14:25;5.63;;;1.00;;
52982;SDS011;48698;45.736;13.926;2023-06-24T16:19:28;10.75;;;1.15;;
52982;SDS011;48698;45.736;13.926;2023-06-24T16:24:31;12.82;;;1.63;;
52982;SDS011;48698;45.736;13.926;2023-06-24T16:29:33;4.73;;;0.70;;
52982;SDS011;48698;45.736;13.926;2023-06-24T16:34:36;1.13;;;0.55;;
52982;SDS011;48698;45.736;13.926;2023-06-24T16:39:39;2.07;;;0.70;;
52982;SDS011;48698;45.736;13.926;2023-06-24T16:44:42;2.07;;;1.00;;
52982;SDS011;48698;45.736;13.926;2023-06-24T16:49:48;0.50;;;0.50;;
52982;SDS011;48698;45.736;13.926;2023-06-24T16:54:55;1.52;;;0.60;;
52982;SDS011;48698;45.736;13.926;2023-06-24T16:59:59;2.42;;;0.60;;
52982;SDS011;48698;45.736;13.926;2023-06-24T17:05:02;0.43;;;0.40;;
52982;SDS011;48698;45.736;13.926;2023-06-24T17:10:04;1.55;;;0.60;;
52982;SDS011;48698;45.736;13.926;2023-06-24T17:15:08;1.75;;;0.65;;
52982;SDS011;48698;45.736;13.926;2023-06-24T17:20:12;1.08;;;0.82;;
52982;SDS011;48698;45.736;13.926;2023-06-24T17:25:15;1.35;;;0.95;;
52982;SDS011;48698;45.736;13.926;2023-06-24T17:30:18;2.80;;;0.80;;
52982;SDS011;48698;45.736;13.926;2023-06-24T17:35:20;2.93;;;1.17;;
52982;SDS011;48698;45.736;13.926;2023-06-24T17:40:24;1.10;;;0.80;;
52982;SDS011;48698;45.736;13.926;2023-06-24T17:45:27;1.30;;;0.90;;
52982;SDS011;48698;45.736;13.926;2023-06-24T17:50:32;3.90;;;0.80;;
52982;SDS011;48698;45.736;13.926;2023-06-24T17:55:36;1.02;;;0.60;;
52982;SDS011;48698;45.736;13.926;2023-06-24T18:00:39;1.67;;;0.70;;
52982;SDS011;48698;45.736;13.926;2023-06-24T18:05:42;0.80;;;0.60;;
52982;SDS011;48698;45.736;13.926;2023-06-24T18:10:45;1.92;;;0.57;;
52982;SDS011;48698;45.736;13.926;2023-06-24T18:15:47;4.68;;;0.90;;
52982;SDS011;48698;45.736;13.926;2023-06-24T18:20:50;1.90;;;0.70;;
52982;SDS011;48698;45.736;13.926;2023-06-24T18:25:53;0.60;;;0.57;;
52982;SDS011;48698;45.736;13.926;2023-06-24T18:30:55;2.07;;;0.70;;
52982;SDS011;48698;45.736;13.926;2023-06-24T18:35:58;1.07;;;0.60;;
52982;SDS011;48698;45.736;13.926;2023-06-24T18:41:01;5.28;;;0.75;;
52982;SDS011;48698;45.736;13.926;2023-06-24T18:46:04;1.85;;;0.50;;
52982;SDS011;48698;45.736;13.926;2023-06-24T18:51:07;1.20;;;0.77;;
52982;SDS011;48698;45.736;13.926;2023-06-24T18:56:10;2.13;;;0.60;;
52982;SDS011;48698;45.736;13.926;2023-06-24T19:01:12;2.50;;;0.80;;
52982;SDS011;48698;45.736;13.926;2023-06-24T19:06:15;1.13;;;0.57;;
52982;SDS011;48698;45.736;13.926;2023-06-24T19:11:20;1.08;;;0.75;;
52982;SDS011;48698;45.736;13.926;2023-06-24T19:16:24;1.98;;;0.65;;
52982;SDS011;48698;45.736;13.926;2023-06-24T19:21:28;3.13;;;1.45;;
52982;SDS011;48698;45.736;13.926;2023-06-24T19:26:30;3.38;;;0.70;;
52982;SDS011;48698;45.736;13.926;2023-06-24T19:31:33;0.80;;;0.80;;
52982;SDS011;48698;45.736;13.926;2023-06-24T19:36:36;1.23;;;0.80;;
52982;SDS011;48698;45.736;13.926;2023-06-24T19:41:39;1.60;;;0.90;;
52982;SDS011;48698;45.736;13.926;2023-06-24T19:46:41;1.25;;;0.82;;
52982;SDS011;48698;45.736;13.926;2023-06-24T19:51:44;0.85;;;0.80;;
52982;SDS011;48698;45.736;13.926;2023-06-24T19:56:47;1.83;;;0.60;;
52982;SDS011;48698;45.736;13.926;2023-06-24T20:01:52;1.02;;;0.60;;
52982;SDS011;48698;45.736;13.926;2023-06-24T20:06:55;3.42;;;0.80;;
52982;SDS011;48698;45.736;13.926;2023-06-24T20:11:58;0.93;;;0.70;;
52982;SDS011;48698;45.736;13.926;2023-06-24T20:17:01;2.05;;;0.77;;
52982;SDS011;48698;45.736;13.926;2023-06-24T20:22:03;1.60;;;1.00;;
52982;SDS011;48698;45.736;13.926;2023-06-24T20:27:06;0.77;;;0.73;;
52982;SDS011;48698;45.736;13.926;2023-06-24T20:32:09;1.23;;;0.73;;
52982;SDS011;48698;45.736;13.926;2023-06-24T20:37:12;0.70;;;0.60;;
52982;SDS011;48698;45.736;13.926;2023-06-24T20:42:14;1.50;;;0.60;;
52982;SDS011;48698;45.736;13.926;2023-06-24T20:47:17;1.85;;;0.75;;
52982;SDS011;48698;45.736;13.926;2023-06-24T20:52:20;3.33;;;0.70;;
52982;SDS011;48698;45.736;13.926;2023-06-24T20:57:22;1.85;;;0.60;;
52982;SDS011;48698;45.736;13.926;2023-06-24T21:02:25;2.20;;;0.60;;
52982;SDS011;48698;45.736;13.926;2023-06-24T21:07:28;2.15;;;0.70;;
52982;SDS011;48698;45.736;13.926;2023-06-24T21:12:31;1.00;;;0.80;;
52982;SDS011;48698;45.736;13.926;2023-06-24T21:17:41;0.70;;;0.70;;
52982;SDS011;48698;45.736;13.926;2023-06-24T21:22:44;0.95;;;0.70;;
52982;SDS011;48698;45.736;13.926;2023-06-24T21:27:46;2.13;;;0.90;;
52982;SDS011;48698;45.736;13.926;2023-06-24T21:32:49;1.27;;;0.88;;
52982;SDS011;48698;45.736;13.926;2023-06-24T21:37:52;1.15;;;0.73;;
52982;SDS011;48698;45.736;13.926;2023-06-24T21:42:55;1.85;;;0.73;;
52982;SDS011;48698;45.736;13.926;2023-06-24T21:47:57;0.70;;;0.70;;
52982;SDS011;48698;45.736;13.926;2023-06-24T21:53:00;1.10;;;0.83;;
52982;SDS011;48698;45.736;13.926;2023-06-24T21:58:03;2.03;;;0.75;;
52982;SDS011;48698;45.736;13.926;2023-06-24T22:03:06;1.17;;;0.70;;
52982;SDS011;48698;45.736;13.926;2023-06-24T22:08:09;1.30;;;0.80;;
52982;SDS011;48698;45.736;13.926;2023-06-24T22:13:11;4.00;;;0.70;;
52982;SDS011;48698;45.736;13.926;2023-06-24T22:18:14;1.10;;;1.00;;
52982;SDS011;48698;45.736;13.926;2023-06-24T22:23:17;1.05;;;0.90;;
52982;SDS011;48698;45.736;13.926;2023-06-24T22:28:19;2.47;;;0.82;;
52982;SDS011;48698;45.736;13.926;2023-06-24T22:33:22;1.23;;;1.00;;
52982;SDS011;48698;45.736;13.926;2023-06-24T22:38:25;2.40;;;0.90;;
52982;SDS011;48698;45.736;13.926;2023-06-24T22:43:27;1.40;;;0.70;;
52982;SDS011;48698;45.736;13.926;2023-06-24T22:48:31;1.00;;;0.90;;
52982;SDS011;48698;45.736;13.926;2023-06-24T22:53:33;1.10;;;0.93;;
52982;SDS011;48698;45.736;13.926;2023-06-24T22:58:36;1.20;;;1.08;;
52982;SDS011;48698;45.736;13.926;2023-06-24T23:03:38;1.13;;;0.85;;
52982;SDS011;48698;45.736;13.926;2023-06-24T23:08:42;1.97;;;1.10;;
52982;SDS011;48698;45.736;13.926;2023-06-24T23:13:45;1.10;;;1.00;;
52982;SDS011;48698;45.736;13.926;2023-06-24T23:18:48;2.30;;;1.60;;
52982;SDS011;48698;45.736;13.926;2023-06-24T23:23:51;1.30;;;1.20;;
52982;SDS011;48698;45.736;13.926;2023-06-24T23:28:54;1.60;;;1.20;;
52982;SDS011;48698;45.736;13.926;2023-06-24T23:34:08;1.98;;;1.30;;
52982;SDS011;48698;45.736;13.926;2023-06-24T23:39:11;2.13;;;1.50;;
52982;SDS011;48698;45.736;13.926;2023-06-24T23:44:14;4.32;;;1.35;;
52982;SDS011;48698;45.736;13.926;2023-06-24T23:49:17;1.30;;;1.17;;
52982;SDS011;48698;45.736;13.926;2023-06-24T23:54:20;1.40;;;1.30;;
52982;SDS011;48698;45.736;13.926;2023-06-24T23:59:22;2.47;;;1.30;;
